sensor_id;sensor_type;location;lat;lon;timestamp;P1;durP1;ratioP1;P2;durP2;ratioP2
51792;SDS011;37850;53.178;6.376;2023-08-31T00:02:17;4.25;;;1.55;;
51792;SDS011;37850;53.178;6.376;2023-08-31T00:04:44;4.80;;;1.55;;
51792;SDS011;37850;53.178;6.376;2023-08-31T00:07:10;4.55;;;1.70;;
51792;SDS011;37850;53.178;6.376;2023-08-31T00:09:35;5.28;;;1.52;;
51792;SDS011;37850;53.178;6.376;2023-08-31T00:12:02;5.15;;;1.55;;
51792;SDS011;37850;53.178;6.376;2023-08-31T00:14:28;6.13;;;1.63;;
51792;SDS011;37850;53.178;6.376;2023-08-31T00:16:54;5.22;;;1.55;;
51792;SDS011;37850;53.178;6.376;2023-08-31T00:19:22;4.10;;;1.40;;
51792;SDS011;37850;53.178;6.376;2023-08-31T00:21:48;3.22;;;1.38;;
51792;SDS011;37850;53.178;6.376;2023-08-31T00:24:14;7.28;;;1.65;;
51792;SDS011;37850;53.178;6.376;2023-08-31T00:26:40;4.65;;;1.27;;
51792;SDS011;37850;53.178;6.376;2023-08-31T00:29:11;4.65;;;1.48;;
51792;SDS011;37850;53.178;6.376;2023-08-31T00:31:37;4.70;;;1.52;;
51792;SDS011;37850;53.178;6.376;2023-08-31T00:34:03;3.33;;;1.58;;
51792;SDS011;37850;53.178;6.376;2023-08-31T00:36:30;7.97;;;1.95;;
51792;SDS011;37850;53.178;6.376;2023-08-31T00:38:56;7.95;;;2.22;;
51792;SDS011;37850;53.178;6.376;2023-08-31T00:41:22;3.28;;;1.40;;
51792;SDS011;37850;53.178;6.376;2023-08-31T00:43:48;3.65;;;1.50;;
51792;SDS011;37850;53.178;6.376;2023-08-31T00:46:14;3.13;;;1.40;;
51792;SDS011;37850;53.178;6.376;2023-08-31T00:48:40;3.65;;;1.40;;
51792;SDS011;37850;53.178;6.376;2023-08-31T00:51:07;5.53;;;1.70;;
51792;SDS011;37850;53.178;6.376;2023-08-31T00:53:33;6.05;;;1.73;;
51792;SDS011;37850;53.178;6.376;2023-08-31T00:56:00;4.15;;;1.48;;
51792;SDS011;37850;53.178;6.376;2023-08-31T00:58:27;6.43;;;1.75;;
51792;SDS011;37850;53.178;6.376;2023-08-31T01:00:57;6.22;;;1.55;;
51792;SDS011;37850;53.178;6.376;2023-08-31T01:12:10;2.97;;;1.13;;
51792;SDS011;37850;53.178;6.376;2023-08-31T01:14:59;5.63;;;1.40;;
51792;SDS011;37850;53.178;6.376;2023-08-31T01:17:33;3.70;;;1.30;;
51792;SDS011;37850;53.178;6.376;2023-08-31T01:20:41;3.25;;;1.15;;
51792;SDS011;37850;53.178;6.376;2023-08-31T01:25:38;4.00;;;0.93;;
51792;SDS011;37850;53.178;6.376;2023-08-31T01:28:07;2.50;;;0.80;;
51792;SDS011;37850;53.178;6.376;2023-08-31T01:30:34;4.25;;;0.90;;
51792;SDS011;37850;53.178;6.376;2023-08-31T01:33:01;2.88;;;0.82;;
51792;SDS011;37850;53.178;6.376;2023-08-31T01:35:27;2.65;;;0.90;;
51792;SDS011;37850;53.178;6.376;2023-08-31T01:38:11;2.63;;;0.82;;
51792;SDS011;37850;53.178;6.376;2023-08-31T01:43:14;2.47;;;0.77;;
51792;SDS011;37850;53.178;6.376;2023-08-31T01:45:43;3.13;;;0.70;;
51792;SDS011;37850;53.178;6.376;2023-08-31T01:48:10;4.50;;;1.00;;
51792;SDS011;37850;53.178;6.376;2023-08-31T01:50:38;4.40;;;0.88;;
51792;SDS011;37850;53.178;6.376;2023-08-31T01:53:04;2.53;;;1.00;;
51792;SDS011;37850;53.178;6.376;2023-08-31T01:55:32;3.38;;;1.08;;
51792;SDS011;37850;53.178;6.376;2023-08-31T01:57:58;3.03;;;1.00;;
51792;SDS011;37850;53.178;6.376;2023-08-31T02:00:24;2.92;;;1.00;;
51792;SDS011;37850;53.178;6.376;2023-08-31T02:02:51;4.03;;;1.00;;
51792;SDS011;37850;53.178;6.376;2023-08-31T02:05:16;2.70;;;0.80;;
51792;SDS011;37850;53.178;6.376;2023-08-31T02:07:43;3.60;;;0.90;;
51792;SDS011;37850;53.178;6.376;2023-08-31T02:10:09;4.07;;;1.10;;
51792;SDS011;37850;53.178;6.376;2023-08-31T02:12:35;4.85;;;1.10;;
51792;SDS011;37850;53.178;6.376;2023-08-31T02:15:03;5.28;;;1.00;;
51792;SDS011;37850;53.178;6.376;2023-08-31T02:17:30;3.33;;;1.00;;
51792;SDS011;37850;53.178;6.376;2023-08-31T02:19:56;8.50;;;1.38;;
51792;SDS011;37850;53.178;6.376;2023-08-31T02:22:22;4.75;;;1.08;;
51792;SDS011;37850;53.178;6.376;2023-08-31T02:24:48;6.20;;;1.02;;
51792;SDS011;37850;53.178;6.376;2023-08-31T02:27:14;6.93;;;1.20;;
51792;SDS011;37850;53.178;6.376;2023-08-31T02:29:40;3.90;;;1.10;;
51792;SDS011;37850;53.178;6.376;2023-08-31T02:32:05;6.60;;;1.33;;
51792;SDS011;37850;53.178;6.376;2023-08-31T02:34:31;2.63;;;0.95;;
51792;SDS011;37850;53.178;6.376;2023-08-31T02:36:57;7.68;;;1.10;;
51792;SDS011;37850;53.178;6.376;2023-08-31T02:39:23;4.13;;;0.93;;
51792;SDS011;37850;53.178;6.376;2023-08-31T02:41:49;2.55;;;0.90;;
51792;SDS011;37850;53.178;6.376;2023-08-31T02:44:15;8.60;;;1.10;;
51792;SDS011;37850;53.178;6.376;2023-08-31T02:46:40;2.28;;;0.93;;
51792;SDS011;37850;53.178;6.376;2023-08-31T02:49:06;2.75;;;1.00;;
51792;SDS011;37850;53.178;6.376;2023-08-31T02:51:32;4.53;;;1.30;;
51792;SDS011;37850;53.178;6.376;2023-08-31T02:53:57;2.85;;;1.10;;
51792;SDS011;37850;53.178;6.376;2023-08-31T02:56:23;4.43;;;1.25;;
51792;SDS011;37850;53.178;6.376;2023-08-31T02:58:49;3.45;;;1.10;;
51792;SDS011;37850;53.178;6.376;2023-08-31T03:01:15;5.70;;;1.20;;
51792;SDS011;37850;53.178;6.376;2023-08-31T03:03:41;3.35;;;1.33;;
51792;SDS011;37850;53.178;6.376;2023-08-31T03:06:11;6.38;;;1.13;;
51792;SDS011;37850;53.178;6.376;2023-08-31T03:08:37;3.80;;;1.10;;
51792;SDS011;37850;53.178;6.376;2023-08-31T03:11:04;3.88;;;1.00;;
51792;SDS011;37850;53.178;6.376;2023-08-31T03:13:30;6.82;;;1.45;;
51792;SDS011;37850;53.178;6.376;2023-08-31T03:15:57;3.97;;;1.08;;
51792;SDS011;37850;53.178;6.376;2023-08-31T03:18:22;4.78;;;1.17;;
51792;SDS011;37850;53.178;6.376;2023-08-31T03:20:48;3.08;;;1.00;;
51792;SDS011;37850;53.178;6.376;2023-08-31T03:23:14;4.50;;;1.00;;
51792;SDS011;37850;53.178;6.376;2023-08-31T03:25:40;4.78;;;1.20;;
51792;SDS011;37850;53.178;6.376;2023-08-31T03:28:06;7.32;;;1.20;;
51792;SDS011;37850;53.178;6.376;2023-08-31T03:30:32;4.28;;;1.13;;
51792;SDS011;37850;53.178;6.376;2023-08-31T03:32:58;6.25;;;1.13;;
51792;SDS011;37850;53.178;6.376;2023-08-31T03:35:24;5.63;;;1.38;;
51792;SDS011;37850;53.178;6.376;2023-08-31T03:37:54;4.47;;;1.45;;
51792;SDS011;37850;53.178;6.376;2023-08-31T03:40:20;3.17;;;1.13;;
51792;SDS011;37850;53.178;6.376;2023-08-31T03:42:46;3.97;;;1.10;;
51792;SDS011;37850;53.178;6.376;2023-08-31T03:45:12;6.40;;;1.30;;
51792;SDS011;37850;53.178;6.376;2023-08-31T03:47:38;3.88;;;1.00;;
51792;SDS011;37850;53.178;6.376;2023-08-31T03:50:04;3.65;;;1.00;;
51792;SDS011;37850;53.178;6.376;2023-08-31T03:52:30;6.53;;;1.20;;
51792;SDS011;37850;53.178;6.376;2023-08-31T03:54:56;6.90;;;1.10;;
51792;SDS011;37850;53.178;6.376;2023-08-31T03:57:22;3.30;;;1.02;;
51792;SDS011;37850;53.178;6.376;2023-08-31T03:59:48;3.78;;;1.20;;
51792;SDS011;37850;53.178;6.376;2023-08-31T04:02:13;4.97;;;1.27;;
51792;SDS011;37850;53.178;6.376;2023-08-31T04:04:40;4.47;;;1.17;;
51792;SDS011;37850;53.178;6.376;2023-08-31T04:07:05;3.50;;;1.10;;
51792;SDS011;37850;53.178;6.376;2023-08-31T04:09:32;6.72;;;1.15;;
51792;SDS011;37850;53.178;6.376;2023-08-31T04:11:58;2.45;;;0.95;;
51792;SDS011;37850;53.178;6.376;2023-08-31T04:14:25;8.57;;;1.25;;
51792;SDS011;37850;53.178;6.376;2023-08-31T04:16:52;4.78;;;1.10;;
51792;SDS011;37850;53.178;6.376;2023-08-31T04:19:19;4.82;;;1.10;;
51792;SDS011;37850;53.178;6.376;2023-08-31T04:21:44;3.60;;;0.90;;
51792;SDS011;37850;53.178;6.376;2023-08-31T04:24:10;3.28;;;0.93;;
51792;SDS011;37850;53.178;6.376;2023-08-31T04:26:36;4.60;;;1.33;;
51792;SDS011;37850;53.178;6.376;2023-08-31T04:29:02;5.47;;;1.00;;
51792;SDS011;37850;53.178;6.376;2023-08-31T04:31:31;5.50;;;1.00;;
51792;SDS011;37850;53.178;6.376;2023-08-31T04:33:57;5.07;;;1.30;;
51792;SDS011;37850;53.178;6.376;2023-08-31T04:36:23;4.75;;;1.10;;
51792;SDS011;37850;53.178;6.376;2023-08-31T04:38:51;4.28;;;1.10;;
51792;SDS011;37850;53.178;6.376;2023-08-31T04:41:17;2.42;;;0.88;;
51792;SDS011;37850;53.178;6.376;2023-08-31T04:43:44;6.22;;;1.02;;
51792;SDS011;37850;53.178;6.376;2023-08-31T04:46:13;3.65;;;1.00;;
51792;SDS011;37850;53.178;6.376;2023-08-31T04:48:39;3.92;;;1.10;;
51792;SDS011;37850;53.178;6.376;2023-08-31T04:51:05;3.75;;;1.17;;
51792;SDS011;37850;53.178;6.376;2023-08-31T04:53:31;3.22;;;0.98;;
51792;SDS011;37850;53.178;6.376;2023-08-31T04:55:57;4.30;;;1.20;;
51792;SDS011;37850;53.178;6.376;2023-08-31T04:58:23;3.95;;;0.95;;
51792;SDS011;37850;53.178;6.376;2023-08-31T05:00:48;5.13;;;1.15;;
51792;SDS011;37850;53.178;6.376;2023-08-31T05:03:15;2.95;;;1.15;;
51792;SDS011;37850;53.178;6.376;2023-08-31T05:05:40;4.15;;;1.27;;
51792;SDS011;37850;53.178;6.376;2023-08-31T05:08:07;5.32;;;1.30;;
51792;SDS011;37850;53.178;6.376;2023-08-31T05:10:33;3.88;;;1.27;;
51792;SDS011;37850;53.178;6.376;2023-08-31T05:12:59;6.88;;;1.38;;
51792;SDS011;37850;53.178;6.376;2023-08-31T05:15:25;9.45;;;1.70;;
51792;SDS011;37850;53.178;6.376;2023-08-31T05:17:53;5.15;;;1.20;;
51792;SDS011;37850;53.178;6.376;2023-08-31T05:20:19;6.55;;;1.48;;
51792;SDS011;37850;53.178;6.376;2023-08-31T05:22:47;2.95;;;1.00;;
51792;SDS011;37850;53.178;6.376;2023-08-31T05:25:13;3.80;;;1.00;;
51792;SDS011;37850;53.178;6.376;2023-08-31T05:27:39;5.78;;;1.25;;
51792;SDS011;37850;53.178;6.376;2023-08-31T05:30:05;4.97;;;1.23;;
51792;SDS011;37850;53.178;6.376;2023-08-31T05:32:31;4.22;;;1.08;;
51792;SDS011;37850;53.178;6.376;2023-08-31T05:34:57;3.65;;;1.35;;
51792;SDS011;37850;53.178;6.376;2023-08-31T05:37:24;4.30;;;1.20;;
51792;SDS011;37850;53.178;6.376;2023-08-31T05:39:50;5.63;;;1.10;;
51792;SDS011;37850;53.178;6.376;2023-08-31T05:42:16;4.63;;;1.10;;
51792;SDS011;37850;53.178;6.376;2023-08-31T05:44:43;7.25;;;1.38;;
51792;SDS011;37850;53.178;6.376;2023-08-31T05:47:09;5.85;;;1.58;;
51792;SDS011;37850;53.178;6.376;2023-08-31T05:49:35;7.22;;;1.50;;
51792;SDS011;37850;53.178;6.376;2023-08-31T05:52:00;8.50;;;1.40;;
51792;SDS011;37850;53.178;6.376;2023-08-31T05:54:26;6.78;;;1.30;;
51792;SDS011;37850;53.178;6.376;2023-08-31T05:56:52;5.20;;;1.40;;
51792;SDS011;37850;53.178;6.376;2023-08-31T05:59:18;7.80;;;1.55;;
51792;SDS011;37850;53.178;6.376;2023-08-31T06:01:44;5.38;;;1.38;;
51792;SDS011;37850;53.178;6.376;2023-08-31T06:04:10;9.38;;;1.42;;
51792;SDS011;37850;53.178;6.376;2023-08-31T06:06:35;6.45;;;1.40;;
51792;SDS011;37850;53.178;6.376;2023-08-31T06:09:01;8.32;;;1.55;;
51792;SDS011;37850;53.178;6.376;2023-08-31T06:11:27;5.93;;;1.80;;
51792;SDS011;37850;53.178;6.376;2023-08-31T06:13:53;7.00;;;1.52;;
51792;SDS011;37850;53.178;6.376;2023-08-31T06:16:19;4.70;;;1.50;;
51792;SDS011;37850;53.178;6.376;2023-08-31T06:18:44;4.78;;;1.40;;
51792;SDS011;37850;53.178;6.376;2023-08-31T06:21:10;6.15;;;1.50;;
51792;SDS011;37850;53.178;6.376;2023-08-31T06:23:36;9.20;;;1.58;;
51792;SDS011;37850;53.178;6.376;2023-08-31T06:26:02;9.20;;;1.70;;
51792;SDS011;37850;53.178;6.376;2023-08-31T06:28:28;7.65;;;1.38;;
51792;SDS011;37850;53.178;6.376;2023-08-31T06:30:54;8.25;;;1.65;;
51792;SDS011;37850;53.178;6.376;2023-08-31T06:33:20;8.20;;;1.52;;
51792;SDS011;37850;53.178;6.376;2023-08-31T06:35:46;7.70;;;1.40;;
51792;SDS011;37850;53.178;6.376;2023-08-31T06:38:17;8.15;;;1.63;;
51792;SDS011;37850;53.178;6.376;2023-08-31T06:40:43;4.68;;;1.33;;
51792;SDS011;37850;53.178;6.376;2023-08-31T06:43:09;8.38;;;1.40;;
51792;SDS011;37850;53.178;6.376;2023-08-31T06:45:35;5.78;;;1.55;;
51792;SDS011;37850;53.178;6.376;2023-08-31T06:48:01;7.07;;;1.60;;
51792;SDS011;37850;53.178;6.376;2023-08-31T06:50:28;5.68;;;1.48;;
51792;SDS011;37850;53.178;6.376;2023-08-31T06:52:54;8.52;;;1.38;;
51792;SDS011;37850;53.178;6.376;2023-08-31T06:55:20;7.20;;;1.52;;
51792;SDS011;37850;53.178;6.376;2023-08-31T06:57:46;6.00;;;1.30;;
51792;SDS011;37850;53.178;6.376;2023-08-31T07:00:11;7.60;;;1.40;;
51792;SDS011;37850;53.178;6.376;2023-08-31T07:02:41;6.40;;;1.30;;
51792;SDS011;37850;53.178;6.376;2023-08-31T07:05:09;7.88;;;1.50;;
51792;SDS011;37850;53.178;6.376;2023-08-31T07:07:35;3.33;;;1.20;;
51792;SDS011;37850;53.178;6.376;2023-08-31T07:10:01;7.22;;;1.40;;
51792;SDS011;37850;53.178;6.376;2023-08-31T07:12:27;5.38;;;1.50;;
51792;SDS011;37850;53.178;6.376;2023-08-31T07:14:53;5.43;;;1.40;;
51792;SDS011;37850;53.178;6.376;2023-08-31T07:17:18;5.93;;;1.13;;
51792;SDS011;37850;53.178;6.376;2023-08-31T07:19:45;9.43;;;1.70;;
51792;SDS011;37850;53.178;6.376;2023-08-31T07:22:10;4.65;;;1.13;;
51792;SDS011;37850;53.178;6.376;2023-08-31T07:24:40;5.75;;;1.40;;
51792;SDS011;37850;53.178;6.376;2023-08-31T07:27:06;7.90;;;1.30;;
51792;SDS011;37850;53.178;6.376;2023-08-31T07:29:31;6.80;;;1.48;;
51792;SDS011;37850;53.178;6.376;2023-08-31T07:31:58;6.68;;;1.02;;
51792;SDS011;37850;53.178;6.376;2023-08-31T07:34:24;5.22;;;1.17;;
51792;SDS011;37850;53.178;6.376;2023-08-31T07:36:49;6.50;;;1.40;;
51792;SDS011;37850;53.178;6.376;2023-08-31T07:39:16;6.55;;;1.00;;
51792;SDS011;37850;53.178;6.376;2023-08-31T07:41:44;5.28;;;1.30;;
51792;SDS011;37850;53.178;6.376;2023-08-31T07:44:10;5.63;;;1.05;;
51792;SDS011;37850;53.178;6.376;2023-08-31T07:46:35;7.00;;;1.20;;
51792;SDS011;37850;53.178;6.376;2023-08-31T07:49:01;4.50;;;1.23;;
51792;SDS011;37850;53.178;6.376;2023-08-31T07:51:28;7.97;;;1.10;;
51792;SDS011;37850;53.178;6.376;2023-08-31T07:53:53;7.97;;;1.10;;
51792;SDS011;37850;53.178;6.376;2023-08-31T07:56:19;5.20;;;0.90;;
51792;SDS011;37850;53.178;6.376;2023-08-31T07:58:46;8.57;;;1.33;;
51792;SDS011;37850;53.178;6.376;2023-08-31T08:01:15;5.20;;;0.85;;
51792;SDS011;37850;53.178;6.376;2023-08-31T08:03:41;5.40;;;0.95;;
51792;SDS011;37850;53.178;6.376;2023-08-31T08:06:06;6.68;;;1.42;;
51792;SDS011;37850;53.178;6.376;2023-08-31T08:08:33;4.22;;;0.88;;
51792;SDS011;37850;53.178;6.376;2023-08-31T08:10:59;6.57;;;1.00;;
51792;SDS011;37850;53.178;6.376;2023-08-31T08:13:25;5.43;;;0.85;;
51792;SDS011;37850;53.178;6.376;2023-08-31T08:15:50;6.47;;;1.35;;
51792;SDS011;37850;53.178;6.376;2023-08-31T08:18:16;4.40;;;1.20;;
51792;SDS011;37850;53.178;6.376;2023-08-31T08:20:42;4.13;;;0.95;;
51792;SDS011;37850;53.178;6.376;2023-08-31T08:23:08;4.20;;;1.25;;
51792;SDS011;37850;53.178;6.376;2023-08-31T08:25:34;6.38;;;0.98;;
51792;SDS011;37850;53.178;6.376;2023-08-31T08:27:59;2.42;;;0.73;;
51792;SDS011;37850;53.178;6.376;2023-08-31T08:30:25;2.95;;;0.50;;
51792;SDS011;37850;53.178;6.376;2023-08-31T08:32:51;7.70;;;1.00;;
51792;SDS011;37850;53.178;6.376;2023-08-31T08:35:17;5.40;;;0.90;;
51792;SDS011;37850;53.178;6.376;2023-08-31T08:37:43;2.42;;;0.45;;
51792;SDS011;37850;53.178;6.376;2023-08-31T08:40:09;2.67;;;0.55;;
51792;SDS011;37850;53.178;6.376;2023-08-31T08:42:37;3.63;;;0.82;;
51792;SDS011;37850;53.178;6.376;2023-08-31T08:45:12;2.47;;;0.57;;
51792;SDS011;37850;53.178;6.376;2023-08-31T08:47:43;3.67;;;0.70;;
51792;SDS011;37850;53.178;6.376;2023-08-31T08:50:10;4.78;;;0.98;;
51792;SDS011;37850;53.178;6.376;2023-08-31T08:52:36;5.88;;;0.85;;
51792;SDS011;37850;53.178;6.376;2023-08-31T08:55:04;3.58;;;0.63;;
51792;SDS011;37850;53.178;6.376;2023-08-31T08:57:31;4.13;;;0.65;;
51792;SDS011;37850;53.178;6.376;2023-08-31T08:59:57;5.47;;;0.70;;
51792;SDS011;37850;53.178;6.376;2023-08-31T09:02:23;3.65;;;0.55;;
51792;SDS011;37850;53.178;6.376;2023-08-31T09:04:49;4.38;;;0.88;;
51792;SDS011;37850;53.178;6.376;2023-08-31T09:07:19;2.67;;;0.60;;
51792;SDS011;37850;53.178;6.376;2023-08-31T09:09:49;2.58;;;0.70;;
51792;SDS011;37850;53.178;6.376;2023-08-31T09:12:22;3.23;;;0.70;;
51792;SDS011;37850;53.178;6.376;2023-08-31T09:14:59;2.42;;;0.70;;
51792;SDS011;37850;53.178;6.376;2023-08-31T09:17:25;3.67;;;0.63;;
51792;SDS011;37850;53.178;6.376;2023-08-31T09:20:01;5.38;;;1.05;;
51792;SDS011;37850;53.178;6.376;2023-08-31T09:22:32;3.45;;;0.85;;
51792;SDS011;37850;53.178;6.376;2023-08-31T09:24:59;4.28;;;0.95;;
51792;SDS011;37850;53.178;6.376;2023-08-31T09:27:25;3.35;;;0.80;;
51792;SDS011;37850;53.178;6.376;2023-08-31T09:29:56;3.20;;;0.80;;
51792;SDS011;37850;53.178;6.376;2023-08-31T09:32:26;4.05;;;0.73;;
51792;SDS011;37850;53.178;6.376;2023-08-31T09:34:52;9.57;;;1.10;;
51792;SDS011;37850;53.178;6.376;2023-08-31T09:37:18;3.97;;;0.88;;
51792;SDS011;37850;53.178;6.376;2023-08-31T09:39:43;4.18;;;1.10;;
51792;SDS011;37850;53.178;6.376;2023-08-31T09:42:09;3.55;;;1.00;;
51792;SDS011;37850;53.178;6.376;2023-08-31T09:44:39;5.80;;;1.10;;
51792;SDS011;37850;53.178;6.376;2023-08-31T09:47:08;6.47;;;1.10;;
51792;SDS011;37850;53.178;6.376;2023-08-31T09:49:34;6.63;;;0.98;;
51792;SDS011;37850;53.178;6.376;2023-08-31T09:52:02;2.70;;;0.68;;
51792;SDS011;37850;53.178;6.376;2023-08-31T09:54:31;3.85;;;0.85;;
51792;SDS011;37850;53.178;6.376;2023-08-31T09:57:00;2.80;;;0.60;;
51792;SDS011;37850;53.178;6.376;2023-08-31T09:59:27;1.95;;;0.70;;
51792;SDS011;37850;53.178;6.376;2023-08-31T10:01:54;6.68;;;1.00;;
51792;SDS011;37850;53.178;6.376;2023-08-31T10:04:26;3.78;;;0.70;;
51792;SDS011;37850;53.178;6.376;2023-08-31T10:06:54;4.75;;;0.90;;
51792;SDS011;37850;53.178;6.376;2023-08-31T10:09:20;3.50;;;0.70;;
51792;SDS011;37850;53.178;6.376;2023-08-31T10:11:46;7.18;;;1.00;;
51792;SDS011;37850;53.178;6.376;2023-08-31T10:14:12;6.20;;;1.13;;
51792;SDS011;37850;53.178;6.376;2023-08-31T10:16:39;5.93;;;1.00;;
51792;SDS011;37850;53.178;6.376;2023-08-31T10:19:05;1.90;;;0.70;;
51792;SDS011;37850;53.178;6.376;2023-08-31T10:21:31;3.42;;;0.82;;
51792;SDS011;37850;53.178;6.376;2023-08-31T10:23:58;7.07;;;1.30;;
51792;SDS011;37850;53.178;6.376;2023-08-31T10:26:28;3.55;;;0.80;;
51792;SDS011;37850;53.178;6.376;2023-08-31T10:28:56;6.03;;;1.17;;
51792;SDS011;37850;53.178;6.376;2023-08-31T10:31:23;5.38;;;1.00;;
51792;SDS011;37850;53.178;6.376;2023-08-31T10:33:59;4.65;;;1.10;;
51792;SDS011;37850;53.178;6.376;2023-08-31T10:36:36;4.78;;;1.10;;
51792;SDS011;37850;53.178;6.376;2023-08-31T10:39:10;5.03;;;1.02;;
51792;SDS011;37850;53.178;6.376;2023-08-31T10:41:41;4.38;;;1.33;;
51792;SDS011;37850;53.178;6.376;2023-08-31T10:44:18;2.88;;;0.95;;
51792;SDS011;37850;53.178;6.376;2023-08-31T10:46:44;3.92;;;0.88;;
51792;SDS011;37850;53.178;6.376;2023-08-31T10:51:36;4.68;;;1.00;;
51792;SDS011;37850;53.178;6.376;2023-08-31T10:54:04;3.60;;;1.08;;
51792;SDS011;37850;53.178;6.376;2023-08-31T10:56:29;5.78;;;1.02;;
51792;SDS011;37850;53.178;6.376;2023-08-31T10:58:59;4.45;;;1.00;;
51792;SDS011;37850;53.178;6.376;2023-08-31T11:04:25;5.13;;;0.80;;
51792;SDS011;37850;53.178;6.376;2023-08-31T11:09:44;4.95;;;1.00;;
51792;SDS011;37850;53.178;6.376;2023-08-31T11:12:11;7.05;;;1.25;;
51792;SDS011;37850;53.178;6.376;2023-08-31T11:14:38;6.60;;;1.00;;
51792;SDS011;37850;53.178;6.376;2023-08-31T11:17:04;3.95;;;0.90;;
51792;SDS011;37850;53.178;6.376;2023-08-31T11:19:34;3.03;;;1.00;;
51792;SDS011;37850;53.178;6.376;2023-08-31T11:22:01;4.90;;;1.00;;
51792;SDS011;37850;53.178;6.376;2023-08-31T11:24:29;4.80;;;0.80;;
51792;SDS011;37850;53.178;6.376;2023-08-31T11:26:55;4.75;;;1.00;;
51792;SDS011;37850;53.178;6.376;2023-08-31T11:29:21;4.72;;;0.85;;
51792;SDS011;37850;53.178;6.376;2023-08-31T11:31:47;5.53;;;1.02;;
51792;SDS011;37850;53.178;6.376;2023-08-31T11:34:14;4.30;;;1.08;;
51792;SDS011;37850;53.178;6.376;2023-08-31T11:36:41;4.18;;;0.80;;
51792;SDS011;37850;53.178;6.376;2023-08-31T11:39:11;6.55;;;1.40;;
51792;SDS011;37850;53.178;6.376;2023-08-31T11:41:38;4.10;;;1.00;;
51792;SDS011;37850;53.178;6.376;2023-08-31T11:44:07;6.13;;;1.15;;
51792;SDS011;37850;53.178;6.376;2023-08-31T11:46:38;6.53;;;1.50;;
51792;SDS011;37850;53.178;6.376;2023-08-31T11:49:06;3.72;;;0.90;;
51792;SDS011;37850;53.178;6.376;2023-08-31T11:51:32;4.05;;;0.73;;
51792;SDS011;37850;53.178;6.376;2023-08-31T11:54:02;4.60;;;0.80;;
51792;SDS011;37850;53.178;6.376;2023-08-31T11:56:38;2.58;;;0.70;;
51792;SDS011;37850;53.178;6.376;2023-08-31T11:59:15;2.33;;;0.70;;
51792;SDS011;37850;53.178;6.376;2023-08-31T12:01:47;3.97;;;0.68;;
51792;SDS011;37850;53.178;6.376;2023-08-31T12:04:21;1.88;;;0.70;;
51792;SDS011;37850;53.178;6.376;2023-08-31T12:06:50;2.75;;;0.75;;
51792;SDS011;37850;53.178;6.376;2023-08-31T12:09:18;3.50;;;0.73;;
51792;SDS011;37850;53.178;6.376;2023-08-31T12:11:49;3.40;;;0.70;;
51792;SDS011;37850;53.178;6.376;2023-08-31T12:14:25;3.97;;;0.70;;
51792;SDS011;37850;53.178;6.376;2023-08-31T12:16:52;4.15;;;0.98;;
51792;SDS011;37850;53.178;6.376;2023-08-31T12:19:26;4.53;;;1.08;;
51792;SDS011;37850;53.178;6.376;2023-08-31T12:21:53;3.13;;;0.73;;
51792;SDS011;37850;53.178;6.376;2023-08-31T12:24:19;3.00;;;0.70;;
51792;SDS011;37850;53.178;6.376;2023-08-31T12:26:47;6.82;;;0.88;;
51792;SDS011;37850;53.178;6.376;2023-08-31T12:29:13;4.18;;;1.30;;
51792;SDS011;37850;53.178;6.376;2023-08-31T12:31:39;4.72;;;0.90;;
51792;SDS011;37850;53.178;6.376;2023-08-31T12:34:05;8.02;;;1.00;;
51792;SDS011;37850;53.178;6.376;2023-08-31T12:36:31;6.90;;;1.52;;
51792;SDS011;37850;53.178;6.376;2023-08-31T12:38:57;2.78;;;0.90;;
51792;SDS011;37850;53.178;6.376;2023-08-31T12:41:26;4.38;;;1.10;;
51792;SDS011;37850;53.178;6.376;2023-08-31T12:43:53;5.68;;;1.05;;
51792;SDS011;37850;53.178;6.376;2023-08-31T12:46:19;5.43;;;0.80;;
51792;SDS011;37850;53.178;6.376;2023-08-31T12:48:45;3.90;;;1.10;;
51792;SDS011;37850;53.178;6.376;2023-08-31T12:51:11;6.05;;;1.88;;
51792;SDS011;37850;53.178;6.376;2023-08-31T12:53:39;7.10;;;1.70;;
51792;SDS011;37850;53.178;6.376;2023-08-31T12:56:05;6.07;;;1.40;;
51792;SDS011;37850;53.178;6.376;2023-08-31T12:58:31;2.92;;;0.95;;
51792;SDS011;37850;53.178;6.376;2023-08-31T13:00:58;8.07;;;2.83;;
51792;SDS011;37850;53.178;6.376;2023-08-31T13:03:24;8.13;;;2.00;;
51792;SDS011;37850;53.178;6.376;2023-08-31T13:05:50;5.00;;;1.30;;
51792;SDS011;37850;53.178;6.376;2023-08-31T13:08:16;2.78;;;0.95;;
51792;SDS011;37850;53.178;6.376;2023-08-31T13:10:42;3.30;;;0.90;;
51792;SDS011;37850;53.178;6.376;2023-08-31T13:13:08;6.47;;;1.20;;
51792;SDS011;37850;53.178;6.376;2023-08-31T13:15:34;5.53;;;1.20;;
51792;SDS011;37850;53.178;6.376;2023-08-31T13:18:00;3.60;;;0.93;;
51792;SDS011;37850;53.178;6.376;2023-08-31T13:20:26;4.32;;;1.25;;
51792;SDS011;37850;53.178;6.376;2023-08-31T13:22:52;7.85;;;1.55;;
51792;SDS011;37850;53.178;6.376;2023-08-31T13:25:18;4.22;;;0.90;;
51792;SDS011;37850;53.178;6.376;2023-08-31T13:27:44;5.68;;;1.60;;
51792;SDS011;37850;53.178;6.376;2023-08-31T13:30:10;6.00;;;1.10;;
51792;SDS011;37850;53.178;6.376;2023-08-31T13:32:37;6.70;;;1.20;;
51792;SDS011;37850;53.178;6.376;2023-08-31T13:35:04;8.45;;;1.20;;
51792;SDS011;37850;53.178;6.376;2023-08-31T13:37:33;4.32;;;1.10;;
51792;SDS011;37850;53.178;6.376;2023-08-31T13:39:59;5.18;;;1.13;;
51792;SDS011;37850;53.178;6.376;2023-08-31T13:42:35;3.20;;;0.93;;
51792;SDS011;37850;53.178;6.376;2023-08-31T13:45:05;5.50;;;0.90;;
51792;SDS011;37850;53.178;6.376;2023-08-31T13:47:32;6.47;;;1.10;;
51792;SDS011;37850;53.178;6.376;2023-08-31T13:50:01;2.22;;;0.80;;
51792;SDS011;37850;53.178;6.376;2023-08-31T13:52:29;5.00;;;0.90;;
51792;SDS011;37850;53.178;6.376;2023-08-31T13:54:54;3.65;;;0.82;;
51792;SDS011;37850;53.178;6.376;2023-08-31T13:57:20;7.82;;;1.45;;
51792;SDS011;37850;53.178;6.376;2023-08-31T13:59:46;7.10;;;1.08;;
51792;SDS011;37850;53.178;6.376;2023-08-31T14:02:12;4.18;;;1.10;;
51792;SDS011;37850;53.178;6.376;2023-08-31T14:04:38;4.32;;;0.90;;
51792;SDS011;37850;53.178;6.376;2023-08-31T14:07:03;4.22;;;1.00;;
51792;SDS011;37850;53.178;6.376;2023-08-31T14:09:29;3.13;;;0.80;;
51792;SDS011;37850;53.178;6.376;2023-08-31T14:11:55;4.50;;;0.90;;
51792;SDS011;37850;53.178;6.376;2023-08-31T14:14:22;2.53;;;0.80;;
51792;SDS011;37850;53.178;6.376;2023-08-31T14:16:49;5.10;;;0.98;;
51792;SDS011;37850;53.178;6.376;2023-08-31T14:19:14;6.18;;;0.95;;
51792;SDS011;37850;53.178;6.376;2023-08-31T14:21:40;5.47;;;1.08;;
51792;SDS011;37850;53.178;6.376;2023-08-31T14:24:06;6.10;;;0.80;;
51792;SDS011;37850;53.178;6.376;2023-08-31T14:26:32;4.95;;;1.17;;
51792;SDS011;37850;53.178;6.376;2023-08-31T14:28:58;4.57;;;1.30;;
51792;SDS011;37850;53.178;6.376;2023-08-31T14:31:24;5.78;;;1.38;;
51792;SDS011;37850;53.178;6.376;2023-08-31T14:33:50;6.43;;;1.10;;
51792;SDS011;37850;53.178;6.376;2023-08-31T14:36:17;4.93;;;1.48;;
51792;SDS011;37850;53.178;6.376;2023-08-31T14:38:43;6.72;;;1.23;;
51792;SDS011;37850;53.178;6.376;2023-08-31T14:41:10;4.55;;;1.08;;
51792;SDS011;37850;53.178;6.376;2023-08-31T14:43:36;4.70;;;1.05;;
51792;SDS011;37850;53.178;6.376;2023-08-31T14:46:02;4.72;;;1.10;;
51792;SDS011;37850;53.178;6.376;2023-08-31T14:48:29;5.15;;;1.10;;
51792;SDS011;37850;53.178;6.376;2023-08-31T14:50:55;5.53;;;1.02;;
51792;SDS011;37850;53.178;6.376;2023-08-31T14:53:24;3.33;;;0.90;;
51792;SDS011;37850;53.178;6.376;2023-08-31T14:55:50;4.65;;;1.02;;
51792;SDS011;37850;53.178;6.376;2023-08-31T14:58:17;6.25;;;1.30;;
51792;SDS011;37850;53.178;6.376;2023-08-31T15:00:43;6.38;;;1.20;;
51792;SDS011;37850;53.178;6.376;2023-08-31T15:03:09;7.32;;;1.23;;
51792;SDS011;37850;53.178;6.376;2023-08-31T15:05:36;8.50;;;1.45;;
51792;SDS011;37850;53.178;6.376;2023-08-31T15:08:04;4.80;;;1.17;;
51792;SDS011;37850;53.178;6.376;2023-08-31T15:10:30;5.32;;;1.00;;